Time;durP1;ratioP1;P1;durP2;ratioP2;P2;SDS_P1;SDS_P2;PMS_P1;PMS_P2;Temp;Humidity;BMP_temperature;BMP_pressure;BME280_temperature;BME280_humidity;BME280_pressure;Samples;Min_cycle;Max_cycle;Signal;HPM_P1;HPM_P2
2022/04/07 00:02:18;;;;;;;59.08;32.25;;;;;;;;;;5095481;28;20199;-48
2022/04/07 00:04:45;;;;;;;48.28;26.15;;;;;;;;;;5095841;28;20203;-48
2022/04/07 00:07:13;;;;;;;52.80;24.08;;;;;;;;;;5095922;28;20233;-48
2022/04/07 00:09:40;;;;;;;30.52;15.77;;;;;;;;;;5095925;28;20549;-48
2022/04/07 00:12:07;;;;;;;32.47;17.50;;;;;;;;;;5096055;28;20247;-49
2022/04/07 00:14:34;;;;;;;37.28;16.75;;;;;;;;;;5096191;28;20203;-48
2022/04/07 00:17:02;;;;;;;32.47;17.92;;;;;;;;;;5095796;28;20217;-49
2022/04/07 00:19:29;;;;;;;72.38;48.95;;;;;;;;;;5095534;28;20207;-50
2022/04/07 00:21:57;;;;;;;36.20;26.45;;;;;;;;;;5095326;28;20301;-50
2022/04/07 00:24:24;;;;;;;42.30;18.80;;;;;;;;;;5096089;28;20289;-47
2022/04/07 00:27:10;;;;;;;23.67;13.48;;;;;;;;;;5095869;28;20240;-49
2022/04/07 00:29:37;;;;;;;21.60;12.27;;;;;;;;;;5094372;28;20691;-50
2022/04/07 00:32:06;;;;;;;20.67;11.43;;;;;;;;;;5095407;28;20203;-52
2022/04/07 00:34:33;;;;;;;19.70;12.43;;;;;;;;;;5095470;28;20206;-48
2022/04/07 00:37:00;;;;;;;34.00;20.00;;;;;;;;;;5095358;28;20214;-49
2022/04/07 00:39:27;;;;;;;22.00;12.90;;;;;;;;;;5095558;28;20199;-49
2022/04/07 00:41:54;;;;;;;145.88;79.53;;;;;;;;;;5095185;28;20664;-49
2022/04/07 00:44:22;;;;;;;39.38;18.48;;;;;;;;;;5094974;28;20229;-50
2022/04/07 00:46:49;;;;;;;29.75;15.00;;;;;;;;;;5095263;28;20267;-51
2022/04/07 00:49:17;;;;;;;30.92;16.90;;;;;;;;;;5094983;28;20568;-53
2022/04/07 00:51:44;;;;;;;27.30;14.98;;;;;;;;;;5095000;28;20195;-49
2022/04/07 00:54:13;;;;;;;29.33;16.15;;;;;;;;;;5095220;28;20534;-49
2022/04/07 00:56:41;;;;;;;19.85;13.25;;;;;;;;;;5095067;28;20645;-49
2022/04/07 00:59:12;;;;;;;30.67;15.13;;;;;;;;;;5095022;28;20206;-49
2022/04/07 01:01:39;;;;;;;27.27;14.18;;;;;;;;;;5094804;28;20248;-50
2022/04/07 01:04:06;;;;;;;37.58;20.63;;;;;;;;;;5095022;28;20218;-50
2022/04/07 01:06:33;;;;;;;28.25;14.57;;;;;;;;;;5094961;28;20222;-52
2022/04/07 01:09:00;;;;;;;25.58;13.27;;;;;;;;;;5094029;28;20236;-49
2022/04/07 01:11:29;;;;;;;24.60;13.35;;;;;;;;;;5095068;28;20202;-48
2022/04/07 01:13:56;;;;;;;20.95;11.93;;;;;;;;;;5094675;28;20633;-50
2022/04/07 01:16:27;;;;;;;35.08;15.20;;;;;;;;;;5099365;28;20289;-48
2022/04/07 01:18:56;;;;;;;22.20;11.15;;;;;;;;;;5099490;28;20213;-49
2022/04/07 01:21:24;;;;;;;19.83;10.68;;;;;;;;;;5099079;28;20248;-48
2022/04/07 01:23:59;;;;;;;58.90;47.53;;;;;;;;;;5099080;28;20236;-50
2022/04/07 01:26:26;;;;;;;16.75;11.02;;;;;;;;;;5099089;28;20295;-50
2022/04/07 01:28:53;;;;;;;31.05;14.02;;;;;;;;;;5098996;28;20210;-49
2022/04/07 01:31:20;;;;;;;22.38;12.38;;;;;;;;;;5099175;28;20199;-49
2022/04/07 01:33:47;;;;;;;20.63;10.95;;;;;;;;;;5099198;28;20227;-51
2022/04/07 01:36:17;;;;;;;16.60;10.88;;;;;;;;;;5098774;28;20259;-47
2022/04/07 01:38:45;;;;;;;20.92;11.32;;;;;;;;;;5098542;28;20581;-50
2022/04/07 01:41:13;;;;;;;14.80;9.98;;;;;;;;;;5097673;28;20657;-49
2022/04/07 01:43:41;;;;;;;17.17;9.63;;;;;;;;;;5099487;28;20275;-52
2022/04/07 01:46:10;;;;;;;16.02;10.43;;;;;;;;;;5097813;28;20616;-49
2022/04/07 01:48:39;;;;;;;31.42;12.57;;;;;;;;;;5098937;28;20229;-52
2022/04/07 01:51:07;;;;;;;19.88;11.05;;;;;;;;;;5097779;28;20233;-52
2022/04/07 01:53:35;;;;;;;19.55;10.43;;;;;;;;;;5097875;28;20199;-50
2022/04/07 01:56:03;;;;;;;19.20;11.20;;;;;;;;;;5097650;28;20237;-49
2022/04/07 01:58:31;;;;;;;21.02;11.48;;;;;;;;;;5098680;28;20206;-51
2022/04/07 02:00:59;;;;;;;19.33;11.50;;;;;;;;;;5097754;28;20246;-48
2022/04/07 02:03:26;;;;;;;22.08;12.13;;;;;;;;;;5097798;28;20210;-48
2022/04/07 02:05:53;;;;;;;27.65;16.55;;;;;;;;;;5098049;28;20198;-49
2022/04/07 02:08:20;;;;;;;32.28;15.65;;;;;;;;;;5099052;28;20211;-49
2022/04/07 02:10:48;;;;;;;29.92;13.95;;;;;;;;;;5098133;28;20226;-50
2022/04/07 02:13:15;;;;;;;22.60;12.85;;;;;;;;;;5097130;28;20621;-52
2022/04/07 02:15:42;;;;;;;20.05;11.73;;;;;;;;;;5097240;28;20225;-49
2022/04/07 02:18:09;;;;;;;32.00;14.00;;;;;;;;;;5098185;28;20202;-47
2022/04/07 02:20:36;;;;;;;19.65;10.80;;;;;;;;;;5097986;28;20250;-48
2022/04/07 02:23:03;;;;;;;22.50;12.95;;;;;;;;;;5097806;28;20211;-49
2022/04/07 02:25:31;;;;;;;74.18;58.40;;;;;;;;;;5097209;28;20226;-48
2022/04/07 02:27:58;;;;;;;37.53;21.73;;;;;;;;;;5097608;28;20203;-47
2022/04/07 02:30:25;;;;;;;21.05;11.38;;;;;;;;;;5097744;28;20234;-49
2022/04/07 02:32:52;;;;;;;22.58;11.35;;;;;;;;;;5097955;28;20228;-48
2022/04/07 02:35:19;;;;;;;25.73;12.25;;;;;;;;;;5097557;28;20202;-47
2022/04/07 02:37:46;;;;;;;19.30;10.60;;;;;;;;;;5097846;28;20276;-48
2022/04/07 02:40:14;;;;;;;15.55;9.27;;;;;;;;;;5097916;28;20241;-47
2022/04/07 02:42:40;;;;;;;16.83;10.20;;;;;;;;;;5097235;28;20246;-47
2022/04/07 02:45:08;;;;;;;17.65;10.20;;;;;;;;;;5097344;28;20214;-48
2022/04/07 02:47:39;;;;;;;32.72;16.77;;;;;;;;;;5097390;28;20223;-48
2022/04/07 02:50:07;;;;;;;26.02;12.18;;;;;;;;;;5097284;28;20213;-48
2022/04/07 02:52:34;;;;;;;25.83;12.40;;;;;;;;;;5097289;28;20237;-48
2022/04/07 02:55:02;;;;;;;31.55;14.02;;;;;;;;;;5097366;28;20203;-48
2022/04/07 02:57:31;;;;;;;32.83;16.67;;;;;;;;;;5097343;28;20272;-49
2022/04/07 02:59:58;;;;;;;18.73;10.32;;;;;;;;;;5096962;28;20643;-49
2022/04/07 03:02:26;;;;;;;26.98;11.25;;;;;;;;;;5097131;28;20246;-49
2022/04/07 03:04:53;;;;;;;22.42;10.02;;;;;;;;;;5096950;28;20659;-48
2022/04/07 03:07:21;;;;;;;20.15;9.85;;;;;;;;;;5097150;28;20221;-47
2022/04/07 03:09:48;;;;;;;47.50;20.70;;;;;;;;;;5097151;28;20229;-47
2022/04/07 03:12:16;;;;;;;25.52;11.43;;;;;;;;;;5096789;28;20198;-48
2022/04/07 03:14:43;;;;;;;18.80;10.13;;;;;;;;;;5097195;28;20373;-47
2022/04/07 03:17:10;;;;;;;17.33;9.85;;;;;;;;;;5096908;28;20234;-47
2022/04/07 03:19:37;;;;;;;15.18;9.40;;;;;;;;;;5096714;28;20519;-49
2022/04/07 03:22:04;;;;;;;35.67;15.73;;;;;;;;;;5096869;28;20289;-48
2022/04/07 03:24:31;;;;;;;26.13;14.57;;;;;;;;;;5096757;28;20226;-48
2022/04/07 03:27:07;;;;;;;76.85;46.15;;;;;;;;;;5096453;28;20206;-51
2022/04/07 03:29:35;;;;;;;36.42;24.08;;;;;;;;;;5096202;28;20308;-48
2022/04/07 03:32:04;;;;;;;24.15;14.18;;;;;;;;;;5096353;28;20207;-47
2022/04/07 03:34:33;;;;;;;28.73;14.80;;;;;;;;;;5096028;28;20289;-49
2022/04/07 03:37:02;;;;;;;20.05;11.15;;;;;;;;;;5095290;28;20226;-47
2022/04/07 03:39:30;;;;;;;20.98;12.20;;;;;;;;;;5096178;28;20226;-48
2022/04/07 03:41:57;;;;;;;17.85;11.57;;;;;;;;;;5095858;28;20234;-50
2022/04/07 03:44:25;;;;;;;19.70;11.13;;;;;;;;;;5096101;28;20238;-48
2022/04/07 03:46:52;;;;;;;21.27;11.73;;;;;;;;;;5095984;28;20335;-47
2022/04/07 03:49:20;;;;;;;31.73;18.85;;;;;;;;;;5096202;28;20206;-49
2022/04/07 03:51:47;;;;;;;33.28;17.05;;;;;;;;;;5096034;28;20226;-47
2022/04/07 03:54:17;;;;;;;21.83;11.43;;;;;;;;;;5095674;28;20206;-47
2022/04/07 03:56:47;;;;;;;30.02;13.50;;;;;;;;;;5095594;28;20195;-48
2022/04/07 03:59:14;;;;;;;15.02;9.57;;;;;;;;;;5095817;28;20695;-49
2022/04/07 04:01:41;;;;;;;13.05;8.98;;;;;;;;;;5095813;28;20229;-55
2022/04/07 04:04:08;;;;;;;17.70;10.02;;;;;;;;;;5101123;28;20202;-55
2022/04/07 04:06:36;;;;;;;16.42;9.25;;;;;;;;;;5109171;28;20582;-50
2022/04/07 04:09:03;;;;;;;15.10;9.10;;;;;;;;;;5116078;28;20417;-48
2022/04/07 04:11:30;;;;;;;26.33;19.30;;;;;;;;;;5116110;28;20212;-52
2022/04/07 04:13:58;;;;;;;18.23;11.18;;;;;;;;;;5107117;28;20233;-50
2022/04/07 04:16:25;;;;;;;18.15;10.30;;;;;;;;;;5114810;28;20253;-50
2022/04/07 04:18:52;;;;;;;12.20;8.43;;;;;;;;;;5109849;27;20242;-51
2022/04/07 04:21:19;;;;;;;14.70;8.55;;;;;;;;;;5103278;28;20257;-48
2022/04/07 04:23:48;;;;;;;18.92;10.85;;;;;;;;;;5101953;28;20217;-48
2022/04/07 04:26:15;;;;;;;14.82;9.48;;;;;;;;;;5114555;28;20256;-48
2022/04/07 04:28:42;;;;;;;15.85;11.38;;;;;;;;;;5101211;27;20264;-49
2022/04/07 04:31:09;;;;;;;14.73;9.32;;;;;;;;;;5114511;27;20261;-54
2022/04/07 04:33:36;;;;;;;17.25;10.52;;;;;;;;;;5114944;27;20282;-54
2022/04/07 04:36:05;;;;;;;17.42;9.88;;;;;;;;;;5114772;28;20218;-53
2022/04/07 04:38:32;;;;;;;14.88;8.98;;;;;;;;;;5114599;28;20235;-54
2022/04/07 04:40:59;;;;;;;14.10;8.60;;;;;;;;;;5114377;28;20229;-48
2022/04/07 04:43:26;;;;;;;14.05;9.90;;;;;;;;;;5105703;28;20225;-54
2022/04/07 04:45:53;;;;;;;15.75;9.18;;;;;;;;;;5094291;28;20253;-51
2022/04/07 04:48:21;;;;;;;16.50;10.45;;;;;;;;;;5101118;28;20283;-55
2022/04/07 04:50:48;;;;;;;22.52;10.70;;;;;;;;;;5111842;27;20256;-54
2022/04/07 04:53:16;;;;;;;24.60;13.32;;;;;;;;;;5112056;28;20205;-53
2022/04/07 04:55:43;;;;;;;23.60;15.90;;;;;;;;;;5113362;28;20222;-58
2022/04/07 04:58:11;;;;;;;26.17;12.98;;;;;;;;;;5109367;28;20257;-55
2022/04/07 05:00:37;;;;;;;23.30;10.77;;;;;;;;;;5111474;28;20210;-53
2022/04/07 05:03:05;;;;;;;19.23;10.18;;;;;;;;;;5113726;28;20228;-48
2022/04/07 05:05:35;;;;;;;23.00;11.40;;;;;;;;;;5113856;28;20216;-54
2022/04/07 05:08:02;;;;;;;14.70;10.18;;;;;;;;;;5113972;28;20223;-52
2022/04/07 05:10:29;;;;;;;24.33;12.15;;;;;;;;;;5111303;28;20202;-49
2022/04/07 05:12:58;;;;;;;22.25;11.23;;;;;;;;;;5113682;28;20222;-50
2022/04/07 05:15:26;;;;;;;61.67;30.20;;;;;;;;;;5113622;28;20495;-54
2022/04/07 05:17:54;;;;;;;74.97;29.02;;;;;;;;;;5114050;28;20202;-50
2022/04/07 05:20:21;;;;;;;80.45;36.13;;;;;;;;;;5114110;28;20190;-49
2022/04/07 05:22:48;;;;;;;111.22;82.93;;;;;;;;;;5113931;28;20283;-49
2022/04/07 05:25:15;;;;;;;41.13;30.98;;;;;;;;;;5113654;28;20205;-50
2022/04/07 05:27:45;;;;;;;35.50;24.35;;;;;;;;;;5112908;28;20282;-49
2022/04/07 05:30:15;;;;;;;26.33;16.95;;;;;;;;;;5111253;28;20230;-50
2022/04/07 05:32:43;;;;;;;32.95;17.98;;;;;;;;;;5113707;28;20728;-51
2022/04/07 05:35:11;;;;;;;43.25;21.52;;;;;;;;;;5112212;28;20209;-52
2022/04/07 05:37:39;;;;;;;34.40;20.40;;;;;;;;;;5114984;28;20647;-49
2022/04/07 05:40:09;;;;;;;40.28;18.83;;;;;;;;;;5114998;28;20637;-51
2022/04/07 05:42:36;;;;;;;25.83;13.27;;;;;;;;;;5110095;28;20246;-49
2022/04/07 05:45:04;;;;;;;48.15;19.98;;;;;;;;;;5094689;28;20207;-49
2022/04/07 05:47:40;;;;;;;26.70;14.48;;;;;;;;;;5094689;28;20271;-49
2022/04/07 05:50:09;;;;;;;29.58;15.52;;;;;;;;;;5094728;28;20217;-51
2022/04/07 05:52:36;;;;;;;33.15;16.85;;;;;;;;;;5094597;28;20199;-49
2022/04/07 05:55:04;;;;;;;23.60;13.98;;;;;;;;;;5094466;28;20702;-48
2022/04/07 05:57:31;;;;;;;52.78;36.78;;;;;;;;;;5094498;28;20287;-49
2022/04/07 06:00:07;;;;;;;32.60;18.20;;;;;;;;;;5094571;28;20199;-52
2022/04/07 06:02:34;;;;;;;24.83;13.55;;;;;;;;;;5098260;28;20660;-50
2022/04/07 06:05:01;;;;;;;36.60;18.92;;;;;;;;;;5098316;28;20210;-49
2022/04/07 06:07:28;;;;;;;26.63;16.17;;;;;;;;;;5098254;28;20587;-49
2022/04/07 06:09:56;;;;;;;35.40;18.42;;;;;;;;;;5098693;28;20222;-48
2022/04/07 06:12:23;;;;;;;33.35;17.48;;;;;;;;;;5098401;28;20202;-48
2022/04/07 06:14:50;;;;;;;24.85;13.23;;;;;;;;;;5097856;28;20628;-49
2022/04/07 06:17:41;;;;;;;16.92;11.50;;;;;;;;;;5098451;28;20237;-50
2022/04/07 06:20:12;;;;;;;35.00;17.60;;;;;;;;;;5097967;28;20210;-50
2022/04/07 06:22:41;;;;;;;21.35;12.20;;;;;;;;;;5097990;28;20249;-48
2022/04/07 06:25:08;;;;;;;17.67;10.98;;;;;;;;;;5097723;28;20225;-51
2022/04/07 06:27:37;;;;;;;16.83;10.80;;;;;;;;;;5098138;28;20207;-50
2022/04/07 06:30:06;;;;;;;22.90;13.05;;;;;;;;;;5097900;28;20238;-51
2022/04/07 06:32:33;;;;;;;24.15;14.60;;;;;;;;;;5097584;28;20198;-49
2022/04/07 06:35:01;;;;;;;39.25;18.10;;;;;;;;;;5097730;28;20232;-48
2022/04/07 06:37:28;;;;;;;27.40;14.00;;;;;;;;;;5097223;28;20222;-48
2022/04/07 06:40:03;;;;;;;56.03;31.70;;;;;;;;;;5097389;28;20213;-49
2022/04/07 06:42:30;;;;;;;25.30;13.52;;;;;;;;;;5097487;28;20224;-49
2022/04/07 06:44:57;;;;;;;21.52;11.90;;;;;;;;;;5097529;28;20258;-49
2022/04/07 06:47:24;;;;;;;17.55;11.38;;;;;;;;;;5097301;28;20215;-50
2022/04/07 06:49:51;;;;;;;24.35;13.20;;;;;;;;;;5098158;28;20194;-49
2022/04/07 06:52:19;;;;;;;15.82;9.90;;;;;;;;;;5097126;28;20581;-49
2022/04/07 06:54:46;;;;;;;22.02;11.57;;;;;;;;;;5097419;28;20259;-48
2022/04/07 06:57:13;;;;;;;23.40;12.40;;;;;;;;;;5097340;28;20211;-50
2022/04/07 06:59:40;;;;;;;71.22;36.00;;;;;;;;;;5097196;28;20526;-50
2022/04/07 07:02:07;;;;;;;22.20;12.55;;;;;;;;;;5097159;28;20240;-48
2022/04/07 07:04:34;;;;;;;20.05;10.63;;;;;;;;;;5097186;28;20680;-51
2022/04/07 07:07:02;;;;;;;17.73;9.35;;;;;;;;;;5097179;28;20229;-50
2022/04/07 07:09:29;;;;;;;29.73;13.57;;;;;;;;;;5097107;28;20210;-49
2022/04/07 07:11:56;;;;;;;18.65;9.82;;;;;;;;;;5095930;28;20621;-50
2022/04/07 07:14:23;;;;;;;10.73;8.45;;;;;;;;;;5096695;28;20229;-49
2022/04/07 07:16:50;;;;;;;15.40;9.85;;;;;;;;;;5096967;28;20242;-49
2022/04/07 07:19:18;;;;;;;13.15;8.70;;;;;;;;;;5096947;28;20203;-52
2022/04/07 07:21:45;;;;;;;19.85;12.10;;;;;;;;;;5096817;28;20226;-48
2022/04/07 07:24:13;;;;;;;26.20;10.60;;;;;;;;;;5096765;28;20207;-49
2022/04/07 07:26:40;;;;;;;16.83;9.57;;;;;;;;;;5096446;28;20292;-50
2022/04/07 07:29:07;;;;;;;12.20;8.13;;;;;;;;;;5100990;28;20221;-49
2022/04/07 07:31:36;;;;;;;11.60;7.30;;;;;;;;;;5116945;28;20612;-50
2022/04/07 07:34:03;;;;;;;13.98;7.18;;;;;;;;;;5102326;28;20230;-52
2022/04/07 07:36:30;;;;;;;13.70;8.35;;;;;;;;;;5096274;28;20195;-49
2022/04/07 07:38:57;;;;;;;10.65;7.70;;;;;;;;;;5096654;28;20203;-49
2022/04/07 07:41:25;;;;;;;26.75;21.00;;;;;;;;;;5097502;28;20694;-52
2022/04/07 07:43:52;;;;;;;13.93;7.85;;;;;;;;;;5111573;28;20230;-50
2022/04/07 07:46:20;;;;;;;27.90;10.90;;;;;;;;;;5105152;28;20633;-50
2022/04/07 07:48:47;;;;;;;16.52;8.65;;;;;;;;;;5116607;28;20198;-53
2022/04/07 07:51:15;;;;;;;16.92;8.23;;;;;;;;;;5108060;28;20691;-51
2022/04/07 07:53:45;;;;;;;15.63;7.90;;;;;;;;;;5096063;28;20284;-49
2022/04/07 07:56:12;;;;;;;15.82;8.50;;;;;;;;;;5096176;28;20283;-48
2022/04/07 07:58:39;;;;;;;37.88;14.15;;;;;;;;;;5095880;28;20225;-49
2022/04/07 08:01:07;;;;;;;36.13;14.07;;;;;;;;;;5096003;28;20223;-52
2022/04/07 08:03:34;;;;;;;30.90;13.40;;;;;;;;;;5116036;28;20230;-50
2022/04/07 08:06:02;;;;;;;13.65;8.00;;;;;;;;;;5116285;28;20632;-50
2022/04/07 08:08:29;;;;;;;13.27;8.02;;;;;;;;;;5116315;28;20198;-53
2022/04/07 08:10:56;;;;;;;28.35;12.93;;;;;;;;;;5112190;28;20635;-52
2022/04/07 08:13:23;;;;;;;13.85;9.10;;;;;;;;;;5096128;28;20201;-52
2022/04/07 08:15:51;;;;;;;22.90;11.02;;;;;;;;;;5095553;28;20298;-50
2022/04/07 08:18:18;;;;;;;12.75;7.05;;;;;;;;;;5095833;28;20510;-50
2022/04/07 08:20:45;;;;;;;11.52;6.78;;;;;;;;;;5095564;28;20210;-57
2022/04/07 08:23:12;;;;;;;88.13;54.10;;;;;;;;;;5095881;28;20234;-50
2022/04/07 08:25:40;;;;;;;22.35;9.23;;;;;;;;;;5095639;28;20202;-52
2022/04/07 08:28:07;;;;;;;40.70;14.48;;;;;;;;;;5095597;28;20252;-52
2022/04/07 08:30:34;;;;;;;33.15;13.02;;;;;;;;;;5095584;28;20280;-55
2022/04/07 08:33:03;;;;;;;44.35;16.70;;;;;;;;;;5095472;28;20206;-50
2022/04/07 08:35:31;;;;;;;19.90;8.77;;;;;;;;;;5095473;28;20298;-52
2022/04/07 08:37:58;;;;;;;10.63;6.30;;;;;;;;;;5095207;28;20609;-50
2022/04/07 08:40:25;;;;;;;35.28;12.50;;;;;;;;;;5095304;28;20583;-55
2022/04/07 08:42:52;;;;;;;83.22;33.40;;;;;;;;;;5095400;28;20661;-55
2022/04/07 08:45:20;;;;;;;26.35;11.18;;;;;;;;;;5095288;28;20210;-55
2022/04/07 08:47:48;;;;;;;36.03;12.30;;;;;;;;;;5095333;28;20225;-52
2022/04/07 08:50:16;;;;;;;26.05;11.18;;;;;;;;;;5095203;28;20245;-60
2022/04/07 08:52:43;;;;;;;18.58;8.93;;;;;;;;;;5094941;28;20199;-62
2022/04/07 08:55:10;;;;;;;17.33;8.00;;;;;;;;;;5095495;28;20655;-62
2022/04/07 08:57:39;;;;;;;27.30;12.10;;;;;;;;;;5095213;28;20214;-59
2022/04/07 09:00:07;;;;;;;39.85;15.73;;;;;;;;;;5095335;28;20230;-58
2022/04/07 09:02:34;;;;;;;20.13;8.35;;;;;;;;;;5094957;28;20245;-50
2022/04/07 09:05:01;;;;;;;70.78;47.92;;;;;;;;;;5095108;28;20210;-48
2022/04/07 09:07:32;;;;;;;15.75;6.88;;;;;;;;;;5094794;28;20250;-49
2022/04/07 09:10:01;;;;;;;13.38;6.18;;;;;;;;;;5095046;28;20653;-50
2022/04/07 09:12:28;;;;;;;8.32;4.43;;;;;;;;;;5094930;28;20550;-51
2022/04/07 09:14:59;;;;;;;18.15;7.88;;;;;;;;;;5097975;28;20254;-56
2022/04/07 09:17:28;;;;;;;9.27;4.65;;;;;;;;;;5115114;28;20190;-49
2022/04/07 09:19:55;;;;;;;9.23;4.22;;;;;;;;;;5115102;28;20198;-52
2022/04/07 09:22:30;;;;;;;8.32;3.65;;;;;;;;;;5115350;28;20248;-56
2022/04/07 09:25:05;;;;;;;137.73;77.82;;;;;;;;;;5115516;28;20259;-54
2022/04/07 09:27:32;;;;;;;18.80;6.93;;;;;;;;;;5115589;28;20182;-52
2022/04/07 09:30:00;;;;;;;10.40;4.00;;;;;;;;;;5115077;28;20264;-54
2022/04/07 09:32:28;;;;;;;14.68;5.45;;;;;;;;;;5115345;28;20205;-57
2022/04/07 09:34:57;;;;;;;10.13;4.25;;;;;;;;;;5115015;28;20240;-48
2022/04/07 09:37:26;;;;;;;7.55;4.20;;;;;;;;;;5119489;28;20516;-48
2022/04/07 09:40:05;;;;;;;17.00;6.25;;;;;;;;;;5119415;28;20518;-47
2022/04/07 09:42:33;;;;;;;6.03;3.45;;;;;;;;;;5119867;28;20247;-57
2022/04/07 09:45:02;;;;;;;32.45;10.27;;;;;;;;;;5119048;28;20198;-54
2022/04/07 09:47:56;;;;;;;24.63;9.30;;;;;;;;;;5119371;28;20206;-54
2022/04/07 09:50:24;;;;;;;14.40;5.60;;;;;;;;;;5117929;28;20613;-51
2022/04/07 09:52:57;;;;;;;18.75;6.63;;;;;;;;;;5119330;28;20198;-51
2022/04/07 09:55:41;;;;;;;12.25;5.20;;;;;;;;;;5119134;28;20335;-54
2022/04/07 09:58:11;;;;;;;8.02;2.95;;;;;;;;;;5118668;28;20616;-49
2022/04/07 10:00:39;;;;;;;8.77;4.22;;;;;;;;;;5118743;28;20659;-50
2022/04/07 10:03:08;;;;;;;7.80;3.90;;;;;;;;;;5118446;28;20681;-48
2022/04/07 10:05:37;;;;;;;8.43;3.47;;;;;;;;;;5118447;28;20632;-48
2022/04/07 10:08:06;;;;;;;14.38;6.10;;;;;;;;;;5118999;28;20206;-47
2022/04/07 10:10:34;;;;;;;12.73;4.63;;;;;;;;;;5118427;28;20636;-48
2022/04/07 10:13:01;;;;;;;13.10;4.18;;;;;;;;;;5117328;28;20236;-50
2022/04/07 10:15:28;;;;;;;6.80;3.63;;;;;;;;;;5117655;28;20213;-46
2022/04/07 10:17:57;;;;;;;7.15;3.15;;;;;;;;;;5117539;28;20201;-50
2022/04/07 10:20:33;;;;;;;8.85;4.57;;;;;;;;;;5117273;28;20198;-50
2022/04/07 10:23:13;;;;;;;13.75;5.65;;;;;;;;;;5117918;28;20225;-50
2022/04/07 10:25:45;;;;;;;10.88;4.72;;;;;;;;;;5117402;28;20693;-49
2022/04/07 10:28:12;;;;;;;24.77;14.50;;;;;;;;;;5117501;28;20202;-50
2022/04/07 10:30:50;;;;;;;11.35;4.68;;;;;;;;;;5100358;28;20263;-49
2022/04/07 10:33:38;;;;;;;13.10;4.65;;;;;;;;;;5100532;28;20207;-49
2022/04/07 10:36:19;;;;;;;9.80;3.78;;;;;;;;;;5097518;28;20213;-49
2022/04/07 10:38:48;;;;;;;7.45;3.55;;;;;;;;;;5098238;28;20198;-49
2022/04/07 10:41:37;;;;;;;4.57;2.47;;;;;;;;;;5097592;28;20640;-50
2022/04/07 10:44:26;;;;;;;11.93;4.43;;;;;;;;;;5097889;28;20287;-49
2022/04/07 10:47:12;;;;;;;13.18;6.32;;;;;;;;;;5097038;28;20206;-50
2022/04/07 10:49:46;;;;;;;17.95;6.03;;;;;;;;;;5097325;28;20190;-50
2022/04/07 10:52:25;;;;;;;9.90;3.42;;;;;;;;;;5096401;28;20248;-52
2022/04/07 10:55:13;;;;;;;7.38;2.85;;;;;;;;;;5097180;28;20191;-54
2022/04/07 10:58:09;;;;;;;3.45;2.10;;;;;;;;;;5097202;28;20539;-49
2022/04/07 11:00:37;;;;;;;14.00;6.28;;;;;;;;;;5097018;28;20207;-49
2022/04/07 11:03:15;;;;;;;6.28;2.88;;;;;;;;;;5097259;28;20219;-52
2022/04/07 11:06:04;;;;;;;9.10;4.03;;;;;;;;;;5097333;28;20202;-50
2022/04/07 11:08:31;;;;;;;6.38;2.40;;;;;;;;;;5097712;28;20202;-52
2022/04/07 11:10:59;;;;;;;20.10;7.35;;;;;;;;;;5097102;28;20207;-50
2022/04/07 11:13:51;;;;;;;8.50;3.72;;;;;;;;;;5097032;28;20629;-53
2022/04/07 11:16:28;;;;;;;7.82;3.78;;;;;;;;;;5095952;28;20592;-51
2022/04/07 11:18:58;;;;;;;6.57;3.35;;;;;;;;;;5096091;28;20533;-52
2022/04/07 11:21:25;;;;;;;6.32;3.10;;;;;;;;;;5097221;28;20533;-52
2022/04/07 11:23:53;;;;;;;8.02;3.45;;;;;;;;;;5096338;28;20276;-52
2022/04/07 11:26:27;;;;;;;10.32;4.35;;;;;;;;;;5096771;28;20645;-50
2022/04/07 11:29:13;;;;;;;14.80;5.70;;;;;;;;;;5097442;28;20206;-49
2022/04/07 11:31:41;;;;;;;9.40;4.88;;;;;;;;;;5096465;28;20202;-54
2022/04/07 11:34:40;;;;;;;8.98;3.15;;;;;;;;;;5096462;28;20240;-49
2022/04/07 11:37:11;;;;;;;7.10;3.22;;;;;;;;;;5096351;28;20215;-49
2022/04/07 11:39:45;;;;;;;6.28;2.88;;;;;;;;;;5095621;28;20230;-50
2022/04/07 11:42:17;;;;;;;5.15;3.20;;;;;;;;;;5096779;28;20209;-53
2022/04/07 11:44:46;;;;;;;5.78;2.90;;;;;;;;;;5096248;28;20260;-49
2022/04/07 11:47:26;;;;;;;6.60;2.75;;;;;;;;;;5105329;28;20186;-49
2022/04/07 11:49:53;;;;;;;18.15;7.70;;;;;;;;;;5113424;28;20534;-53
2022/04/07 11:52:38;;;;;;;14.63;5.38;;;;;;;;;;5115065;28;20186;-51
2022/04/07 11:55:06;;;;;;;7.55;2.80;;;;;;;;;;5112148;28;20631;-56
2022/04/07 11:57:34;;;;;;;6.35;2.35;;;;;;;;;;5114842;28;20213;-56
2022/04/07 12:00:04;;;;;;;10.35;3.20;;;;;;;;;;5114413;28;20206;-52
2022/04/07 12:02:40;;;;;;;6.47;1.73;;;;;;;;;;5115237;28;20201;-56
2022/04/07 12:05:11;;;;;;;3.40;1.25;;;;;;;;;;5112485;28;20218;-56
2022/04/07 12:07:38;;;;;;;7.97;2.85;;;;;;;;;;5114883;28;20235;-57
2022/04/07 12:10:10;;;;;;;4.32;1.67;;;;;;;;;;5114499;28;20624;-57
2022/04/07 12:12:41;;;;;;;24.40;7.85;;;;;;;;;;5114991;28;20205;-55
2022/04/07 12:15:10;;;;;;;3.45;1.48;;;;;;;;;;5112371;28;20251;-58
2022/04/07 12:18:04;;;;;;;30.20;10.32;;;;;;;;;;5114829;28;20258;-56
2022/04/07 12:20:33;;;;;;;11.63;3.97;;;;;;;;;;5113255;28;20190;-50
2022/04/07 12:23:07;;;;;;;4.82;2.13;;;;;;;;;;5114523;28;20205;-57
2022/04/07 12:25:38;;;;;;;5.43;2.45;;;;;;;;;;5114792;28;20190;-56
2022/04/07 12:28:13;;;;;;;6.50;2.90;;;;;;;;;;5114651;28;20194;-54
2022/04/07 12:30:48;;;;;;;7.13;2.55;;;;;;;;;;5114682;28;20244;-50
2022/04/07 12:33:40;;;;;;;56.05;19.27;;;;;;;;;;5113171;28;20194;-55
2022/04/07 12:36:13;;;;;;;13.77;4.57;;;;;;;;;;5109888;28;20644;-56
2022/04/07 12:38:40;;;;;;;10.35;3.45;;;;;;;;;;5102428;28;20533;-54
2022/04/07 12:41:13;;;;;;;6.55;2.65;;;;;;;;;;5108688;27;20222;-53
2022/04/07 12:43:50;;;;;;;8.30;3.65;;;;;;;;;;5103380;27;20978;-58
2022/04/07 12:46:18;;;;;;;7.47;3.05;;;;;;;;;;5104700;28;20213;-55
2022/04/07 12:49:02;;;;;;;21.63;7.22;;;;;;;;;;5107403;27;20222;-55
2022/04/07 12:51:30;;;;;;;6.28;2.55;;;;;;;;;;5107009;28;20222;-58
2022/04/07 12:54:13;;;;;;;54.42;24.50;;;;;;;;;;5109008;28;20264;-58
2022/04/07 12:56:42;;;;;;;24.60;5.32;;;;;;;;;;5110491;28;20667;-59
2022/04/07 12:59:11;;;;;;;7.53;2.60;;;;;;;;;;5107886;28;20684;-58
2022/04/07 13:01:39;;;;;;;7.43;3.20;;;;;;;;;;5101325;28;20241;-58
2022/04/07 13:04:10;;;;;;;12.85;3.78;;;;;;;;;;5103234;27;20252;-59
2022/04/07 13:06:38;;;;;;;6.93;2.67;;;;;;;;;;5114781;28;20237;-59
2022/04/07 13:09:06;;;;;;;4.18;1.90;;;;;;;;;;5109710;27;20206;-58
2022/04/07 13:11:40;;;;;;;6.88;2.60;;;;;;;;;;5099827;28;20226;-58
2022/04/07 13:14:09;;;;;;;118.80;69.53;;;;;;;;;;5093968;28;20283;-59
2022/04/07 13:16:37;;;;;;;6.60;2.67;;;;;;;;;;5094135;28;20227;-59
2022/04/07 13:19:05;;;;;;;3.95;1.85;;;;;;;;;;5093895;28;20275;-59
2022/04/07 13:21:33;;;;;;;13.23;4.47;;;;;;;;;;5093989;28;20276;-58
2022/04/07 13:24:00;;;;;;;13.68;4.32;;;;;;;;;;5103453;27;20233;-59
2022/04/07 13:26:27;;;;;;;7.60;2.85;;;;;;;;;;5114400;28;20225;-59
2022/04/07 13:28:55;;;;;;;3.47;1.35;;;;;;;;;;5104162;28;20253;-57
2022/04/07 13:31:22;;;;;;;8.75;3.35;;;;;;;;;;5093712;28;20607;-58
2022/04/07 13:33:49;;;;;;;55.50;22.30;;;;;;;;;;5093389;28;20232;-58
2022/04/07 13:36:17;;;;;;;33.70;10.77;;;;;;;;;;5093974;28;20238;-58
2022/04/07 13:38:44;;;;;;;9.27;3.20;;;;;;;;;;5092912;28;20238;-57
2022/04/07 13:41:11;;;;;;;7.85;3.05;;;;;;;;;;5102098;28;20723;-58
2022/04/07 13:43:39;;;;;;;9.63;3.05;;;;;;;;;;5112876;28;20916;-59
2022/04/07 13:46:06;;;;;;;5.38;2.25;;;;;;;;;;5108305;27;20325;-59
2022/04/07 13:48:35;;;;;;;6.88;2.88;;;;;;;;;;5104792;28;20233;-58
2022/04/07 13:51:03;;;;;;;5.97;2.17;;;;;;;;;;5111883;27;20241;-59
2022/04/07 13:53:30;;;;;;;17.90;6.10;;;;;;;;;;5110360;28;20322;-58
2022/04/07 13:55:58;;;;;;;111.35;65.93;;;;;;;;;;5112225;28;20245;-59
2022/04/07 13:58:25;;;;;;;6.75;3.03;;;;;;;;;;5112386;28;20672;-59
2022/04/07 14:00:52;;;;;;;22.55;7.10;;;;;;;;;;5112338;27;20240;-56
2022/04/07 14:03:19;;;;;;;5.22;2.53;;;;;;;;;;5109616;28;20248;-58
2022/04/07 14:05:47;;;;;;;5.75;2.75;;;;;;;;;;5112259;27;20293;-56
2022/04/07 14:08:16;;;;;;;5.65;2.55;;;;;;;;;;5111297;28;20319;-58
2022/04/07 14:10:43;;;;;;;11.13;4.25;;;;;;;;;;5113948;27;20226;-58
2022/04/07 14:13:10;;;;;;;6.45;2.38;;;;;;;;;;5113509;28;20234;-58
2022/04/07 14:15:39;;;;;;;61.75;34.30;;;;;;;;;;5114019;27;20256;-58
2022/04/07 14:18:07;;;;;;;9.68;4.00;;;;;;;;;;5106993;28;20238;-57
2022/04/07 14:20:35;;;;;;;27.75;7.45;;;;;;;;;;5113461;27;20287;-58
2022/04/07 14:23:03;;;;;;;19.45;6.50;;;;;;;;;;5113885;28;20256;-58
2022/04/07 14:25:30;;;;;;;8.93;3.70;;;;;;;;;;5096830;28;20277;-59
2022/04/07 14:27:58;;;;;;;10.85;4.82;;;;;;;;;;5096897;28;20235;-59
2022/04/07 14:30:25;;;;;;;4.88;2.20;;;;;;;;;;5096606;28;20243;-58
2022/04/07 14:32:52;;;;;;;7.20;3.00;;;;;;;;;;5097031;28;20297;-58
2022/04/07 14:35:37;;;;;;;4.88;2.45;;;;;;;;;;5096706;28;20280;-59
2022/04/07 14:38:04;;;;;;;47.20;20.77;;;;;;;;;;5095754;28;20243;-59
2022/04/07 14:40:31;;;;;;;20.23;7.00;;;;;;;;;;5096293;28;20313;-59